KZZV/ZZV METAR and TAF weather

Enter ICAO airport designator
Station Type Date Time Source
KZZV METAR 2019/10/23 19:53 UTC NOAA

KZZV 231953Z AUTO 26011KT 10SM CLR 16/M02 A3012 RMK AO2 SLP198 T01611017


Station Type Date Time Source
KZZV Decoded METAR 2019/10/23 19:53 UTC NOAA

ZANESVILLE MUNICIPAL AIRPORT , OH, United States (KZZV) 39-57N 81-54W 268M
Oct 23, 2019 - 03:53 PM EDT / 2019.10.23 1953 UTC
Wind: from the W (260 degrees) at 13 MPH (11 KT):0
Visibility: 10 mile(s):0
Sky conditions: clear
Temperature: 61.0 F (16.1 C)
Dew Point: 28.9 F (-1.7 C)
Relative Humidity: 29%
Pressure (altimeter): 30.12 in. Hg (1019 hPa)
ob: KZZV 231953Z AUTO 26011KT 10SM CLR 16/M02 A3012 RMK AO2 SLP198 T01611017
cycle: 20

Station Type Date Time Source
KZZV TAF 2019/10/23 18:22 UTC NOAA

TAF KZZV 231720Z 2318/2418 26010G19KT P6SM SKC
FM232200 20005KT P6SM SKC
FM241400 20005KT P6SM BKN150

Example: see airport list